WEH weather

Weihai Airport
Weihai, Shandong Province, China

Public forecast

Using degrees Celsius for public forecast. Weather courtesy of forecast.io.

Current aviation weather report (METAR) for Weihai Airport

Report is more than 6 hours old.

Retrieved 2016/05/20 23:00 UTC (4 years ago):

ZSWH 202300Z 01001MPS CAVOK 16/10 Q1019 NOSIG

Closest aviation forecast (TAF) to Weihai Airport

Closest forecast is Yantai Laishan Airport, 42.9 nm (79.5 km) WNW. Retrieved UTC (0 seconds ago):